sensor_id;sensor_type;location;lat;lon;timestamp;pressure;altitude;pressure_sealevel;temperature;humidity
22181;BME280;11256;50.830;12.834;2022-12-29T00:00:27;96964.81;;;8.07;70.24
22181;BME280;11256;50.830;12.834;2022-12-29T00:05:28;96974.72;;;8.16;70.26
22181;BME280;11256;50.830;12.834;2022-12-29T00:10:28;96949.94;;;8.09;70.18
22181;BME280;11256;50.830;12.834;2022-12-29T00:15:28;96946.91;;;8.16;70.42
22181;BME280;11256;50.830;12.834;2022-12-29T00:20:38;96956.03;;;8.25;71.19
22181;BME280;11256;50.830;12.834;2022-12-29T00:26:14;96954.66;;;8.27;71.97
22181;BME280;11256;50.830;12.834;2022-12-29T00:31:34;96956.50;;;8.32;72.42
22181;BME280;11256;50.830;12.834;2022-12-29T00:36:53;96938.94;;;8.34;72.24
22181;BME280;11256;50.830;12.834;2022-12-29T00:41:53;96931.72;;;8.30;72.47
22181;BME280;11256;50.830;12.834;2022-12-29T00:47:12;96918.50;;;8.28;72.27
22181;BME280;11256;50.830;12.834;2022-12-29T00:52:13;96938.63;;;8.41;72.71
22181;BME280;11256;50.830;12.834;2022-12-29T00:57:14;96941.28;;;8.46;72.69
22181;BME280;11256;50.830;12.834;2022-12-29T01:02:14;96935.09;;;8.40;73.12
22181;BME280;11256;50.830;12.834;2022-12-29T01:07:14;96944.03;;;8.41;73.15
22181;BME280;11256;50.830;12.834;2022-12-29T01:12:15;96959.03;;;8.52;73.15
22181;BME280;11256;50.830;12.834;2022-12-29T01:17:15;96945.06;;;8.45;73.73
22181;BME280;11256;50.830;12.834;2022-12-29T01:22:15;96960.69;;;8.48;73.71
22181;BME280;11256;50.830;12.834;2022-12-29T01:27:16;96948.28;;;8.47;73.46
22181;BME280;11256;50.830;12.834;2022-12-29T01:32:16;96951.78;;;8.47;73.89
22181;BME280;11256;50.830;12.834;2022-12-29T01:37:16;96916.44;;;8.44;73.90
22181;BME280;11256;50.830;12.834;2022-12-29T01:42:18;96907.78;;;8.47;74.44
22181;BME280;11256;50.830;12.834;2022-12-29T01:52:44;96920.94;;;8.53;75.00
22181;BME280;11256;50.830;12.834;2022-12-29T01:57:49;96902.09;;;8.48;74.42
22181;BME280;11256;50.830;12.834;2022-12-29T02:02:53;96917.16;;;8.54;74.61
22181;BME280;11256;50.830;12.834;2022-12-29T02:07:53;96913.69;;;8.49;74.43
22181;BME280;11256;50.830;12.834;2022-12-29T02:12:54;96900.19;;;8.49;75.07
22181;BME280;11256;50.830;12.834;2022-12-29T02:18:09;96907.72;;;8.52;76.35
22181;BME280;11256;50.830;12.834;2022-12-29T02:24:20;96907.41;;;8.58;75.41
22181;BME280;11256;50.830;12.834;2022-12-29T02:34:30;96888.13;;;8.65;75.62
22181;BME280;11256;50.830;12.834;2022-12-29T02:40:04;96887.84;;;8.66;75.82
22181;BME280;11256;50.830;12.834;2022-12-29T02:50:35;96882.72;;;8.65;76.10
22181;BME280;11256;50.830;12.834;2022-12-29T02:55:37;96882.69;;;8.70;75.75
22181;BME280;11256;50.830;12.834;2022-12-29T03:00:52;96881.53;;;8.76;75.72
22181;BME280;11256;50.830;12.834;2022-12-29T03:11:23;96878.19;;;8.84;75.46
22181;BME280;11256;50.830;12.834;2022-12-29T03:16:53;96876.00;;;8.86;75.44
22181;BME280;11256;50.830;12.834;2022-12-29T03:22:07;96867.41;;;8.84;75.47
22181;BME280;11256;50.830;12.834;2022-12-29T03:27:36;96867.63;;;8.87;75.70
22181;BME280;11256;50.830;12.834;2022-12-29T03:32:52;96855.56;;;8.80;75.45
22181;BME280;11256;50.830;12.834;2022-12-29T03:38:23;96846.44;;;8.94;75.66
22181;BME280;11256;50.830;12.834;2022-12-29T03:43:26;96847.25;;;8.95;75.34
22181;BME280;11256;50.830;12.834;2022-12-29T03:48:28;96849.91;;;9.00;75.26
22181;BME280;11256;50.830;12.834;2022-12-29T03:53:30;96840.09;;;9.04;75.40
22181;BME280;11256;50.830;12.834;2022-12-29T03:58:31;96835.72;;;9.08;75.46
22181;BME280;11256;50.830;12.834;2022-12-29T04:03:37;96833.69;;;9.00;75.67
22181;BME280;11256;50.830;12.834;2022-12-29T04:08:38;96842.72;;;9.09;75.71
22181;BME280;11256;50.830;12.834;2022-12-29T04:13:40;96851.38;;;9.11;75.69
22181;BME280;11256;50.830;12.834;2022-12-29T04:18:42;96851.38;;;9.11;75.27
22181;BME280;11256;50.830;12.834;2022-12-29T04:23:42;96841.56;;;9.15;75.27
22181;BME280;11256;50.830;12.834;2022-12-29T04:28:44;96853.78;;;9.12;75.20
22181;BME280;11256;50.830;12.834;2022-12-29T04:33:59;96828.50;;;9.03;75.03
22181;BME280;11256;50.830;12.834;2022-12-29T04:39:00;96847.41;;;9.22;74.88
22181;BME280;11256;50.830;12.834;2022-12-29T04:44:01;96862.03;;;9.21;74.71
22181;BME280;11256;50.830;12.834;2022-12-29T04:49:26;96859.25;;;9.26;74.65
22181;BME280;11256;50.830;12.834;2022-12-29T04:54:49;96857.00;;;9.33;74.45
22181;BME280;11256;50.830;12.834;2022-12-29T04:59:53;96828.44;;;9.27;74.33
22181;BME280;11256;50.830;12.834;2022-12-29T05:04:53;96841.88;;;9.32;74.35
22181;BME280;11256;50.830;12.834;2022-12-29T05:09:53;96839.66;;;9.34;74.47
22181;BME280;11256;50.830;12.834;2022-12-29T05:14:54;96836.47;;;9.32;74.71
22181;BME280;11256;50.830;12.834;2022-12-29T05:19:54;96824.97;;;9.21;74.49
22181;BME280;11256;50.830;12.834;2022-12-29T05:24:55;96843.25;;;9.29;74.67
22181;BME280;11256;50.830;12.834;2022-12-29T05:29:56;96840.50;;;9.34;74.55
22181;BME280;11256;50.830;12.834;2022-12-29T05:34:57;96837.03;;;9.29;74.33
22181;BME280;11256;50.830;12.834;2022-12-29T05:39:58;96861.78;;;9.36;74.34
22181;BME280;11256;50.830;12.834;2022-12-29T05:44:59;96865.88;;;9.33;74.14
22181;BME280;11256;50.830;12.834;2022-12-29T05:50:26;96853.69;;;9.36;74.03
22181;BME280;11256;50.830;12.834;2022-12-29T05:55:46;96846.19;;;9.33;73.97
22181;BME280;11256;50.830;12.834;2022-12-29T06:00:48;96848.66;;;9.29;74.34
22181;BME280;11256;50.830;12.834;2022-12-29T06:05:48;96859.56;;;9.24;74.37
22181;BME280;11256;50.830;12.834;2022-12-29T06:10:50;96860.25;;;9.30;74.54
22181;BME280;11256;50.830;12.834;2022-12-29T06:15:50;96863.84;;;9.25;74.30
22181;BME280;11256;50.830;12.834;2022-12-29T06:20:52;96852.69;;;9.32;74.51
22181;BME280;11256;50.830;12.834;2022-12-29T06:25:53;96860.78;;;9.32;74.24
22181;BME280;11256;50.830;12.834;2022-12-29T06:30:53;96859.69;;;9.33;74.70
22181;BME280;11256;50.830;12.834;2022-12-29T06:35:53;96842.88;;;9.36;74.63
22181;BME280;11256;50.830;12.834;2022-12-29T06:40:54;96825.66;;;9.32;74.90
22181;BME280;11256;50.830;12.834;2022-12-29T06:46:13;96836.28;;;9.42;75.03
22181;BME280;11256;50.830;12.834;2022-12-29T06:51:13;96847.72;;;9.39;75.33
22181;BME280;11256;50.830;12.834;2022-12-29T06:56:13;96824.97;;;9.40;75.35
22181;BME280;11256;50.830;12.834;2022-12-29T07:01:14;96828.63;;;9.49;75.35
22181;BME280;11256;50.830;12.834;2022-12-29T07:06:14;96818.47;;;9.41;75.35
22181;BME280;11256;50.830;12.834;2022-12-29T07:11:14;96831.63;;;9.47;75.01
22181;BME280;11256;50.830;12.834;2022-12-29T07:16:15;96849.97;;;9.50;74.86
22181;BME280;11256;50.830;12.834;2022-12-29T07:21:15;96849.59;;;9.57;74.32
22181;BME280;11256;50.830;12.834;2022-12-29T07:26:16;96859.38;;;9.53;74.21
22181;BME280;11256;50.830;12.834;2022-12-29T07:31:21;96848.56;;;9.53;74.07
22181;BME280;11256;50.830;12.834;2022-12-29T07:36:22;96811.16;;;9.41;73.97
22181;BME280;11256;50.830;12.834;2022-12-29T07:41:22;96834.53;;;9.51;73.63
22181;BME280;11256;50.830;12.834;2022-12-29T07:46:22;96833.50;;;9.47;73.42
22181;BME280;11256;50.830;12.834;2022-12-29T07:51:23;96835.28;;;9.38;73.77
22181;BME280;11256;50.830;12.834;2022-12-29T07:56:23;96857.78;;;9.52;73.51
22181;BME280;11256;50.830;12.834;2022-12-29T08:01:23;96861.00;;;9.54;73.32
22181;BME280;11256;50.830;12.834;2022-12-29T08:06:24;96866.56;;;9.44;73.10
22181;BME280;11256;50.830;12.834;2022-12-29T08:11:24;96876.78;;;9.47;72.97
22181;BME280;11256;50.830;12.834;2022-12-29T08:16:24;96874.31;;;9.50;72.78
22181;BME280;11256;50.830;12.834;2022-12-29T08:21:27;96890.22;;;9.52;72.68
22181;BME280;11256;50.830;12.834;2022-12-29T08:26:27;96866.56;;;9.44;72.13
22181;BME280;11256;50.830;12.834;2022-12-29T08:31:27;96889.03;;;9.58;72.17
22181;BME280;11256;50.830;12.834;2022-12-29T08:36:28;96884.25;;;9.55;72.30
22181;BME280;11256;50.830;12.834;2022-12-29T08:41:28;96876.06;;;9.60;72.10
22181;BME280;11256;50.830;12.834;2022-12-29T08:46:29;96861.72;;;9.59;72.25
22181;BME280;11256;50.830;12.834;2022-12-29T08:51:29;96876.69;;;9.70;72.11
22181;BME280;11256;50.830;12.834;2022-12-29T08:56:30;96880.22;;;9.71;71.86
22181;BME280;11256;50.830;12.834;2022-12-29T09:01:33;96887.16;;;9.77;71.82
22181;BME280;11256;50.830;12.834;2022-12-29T09:06:36;96881.94;;;9.80;71.38
22181;BME280;11256;50.830;12.834;2022-12-29T09:11:39;96869.16;;;9.86;71.39
22181;BME280;11256;50.830;12.834;2022-12-29T09:16:40;96867.97;;;9.92;70.89
22181;BME280;11256;50.830;12.834;2022-12-29T09:21:59;96873.19;;;10.02;71.65
22181;BME280;11256;50.830;12.834;2022-12-29T09:26:59;96874.22;;;10.06;71.69
22181;BME280;11256;50.830;12.834;2022-12-29T09:32:00;96877.28;;;10.31;70.75
22181;BME280;11256;50.830;12.834;2022-12-29T09:37:03;96865.38;;;10.32;71.48
22181;BME280;11256;50.830;12.834;2022-12-29T09:42:28;96858.56;;;10.48;71.20
22181;BME280;11256;50.830;12.834;2022-12-29T09:47:31;96863.78;;;10.58;69.99
22181;BME280;11256;50.830;12.834;2022-12-29T09:52:37;96872.94;;;10.76;70.13
22181;BME280;11256;50.830;12.834;2022-12-29T09:57:48;96891.41;;;10.74;69.57
22181;BME280;11256;50.830;12.834;2022-12-29T10:02:59;96861.41;;;10.70;70.47
22181;BME280;11256;50.830;12.834;2022-12-29T10:08:12;96852.16;;;10.71;70.39
22181;BME280;11256;50.830;12.834;2022-12-29T10:23:51;96840.88;;;10.91;70.79
22181;BME280;11256;50.830;12.834;2022-12-29T10:34:01;96833.56;;;11.05;70.69
22181;BME280;11256;50.830;12.834;2022-12-29T10:39:10;96839.53;;;11.16;71.19
22181;BME280;11256;50.830;12.834;2022-12-29T10:44:16;96835.50;;;11.27;70.85
22181;BME280;11256;50.830;12.834;2022-12-29T10:49:18;96824.19;;;11.47;70.51
22181;BME280;11256;50.830;12.834;2022-12-29T10:59:51;96824.47;;;11.81;69.39
22181;BME280;11256;50.830;12.834;2022-12-29T11:05:05;96826.16;;;11.90;69.42
22181;BME280;11256;50.830;12.834;2022-12-29T11:15:43;96830.00;;;11.98;68.76
22181;BME280;11256;50.830;12.834;2022-12-29T11:20:44;96822.84;;;12.02;68.69
22181;BME280;11256;50.830;12.834;2022-12-29T11:25:45;96825.56;;;12.02;68.31
22181;BME280;11256;50.830;12.834;2022-12-29T11:30:59;96816.94;;;12.00;67.55
22181;BME280;11256;50.830;12.834;2022-12-29T11:36:05;96810.94;;;11.89;67.88
22181;BME280;11256;50.830;12.834;2022-12-29T11:41:11;96795.47;;;11.90;67.20
22181;BME280;11256;50.830;12.834;2022-12-29T11:46:19;96819.16;;;11.98;67.15
22181;BME280;11256;50.830;12.834;2022-12-29T11:51:28;96810.53;;;11.96;67.32
22181;BME280;11256;50.830;12.834;2022-12-29T11:56:39;96811.50;;;12.00;67.33
22181;BME280;11256;50.830;12.834;2022-12-29T12:01:42;96822.72;;;12.07;66.95
22181;BME280;11256;50.830;12.834;2022-12-29T12:07:13;96800.00;;;12.03;66.43
22181;BME280;11256;50.830;12.834;2022-12-29T12:12:23;96810.88;;;12.03;66.73
22181;BME280;11256;50.830;12.834;2022-12-29T12:17:33;96806.44;;;12.07;66.42
22181;BME280;11256;50.830;12.834;2022-12-29T12:22:43;96801.63;;;12.04;66.07
22181;BME280;11256;50.830;12.834;2022-12-29T12:27:53;96809.63;;;12.09;67.18
22181;BME280;11256;50.830;12.834;2022-12-29T12:33:06;96765.84;;;12.02;66.28
22181;BME280;11256;50.830;12.834;2022-12-29T12:38:20;96778.53;;;12.15;66.40
22181;BME280;11256;50.830;12.834;2022-12-29T12:43:43;96785.06;;;12.14;66.07
22181;BME280;11256;50.830;12.834;2022-12-29T12:49:11;96780.63;;;12.18;65.75
22181;BME280;11256;50.830;12.834;2022-12-29T12:59:49;96788.78;;;12.26;65.44
22181;BME280;11256;50.830;12.834;2022-12-29T13:10:25;96784.78;;;12.24;65.41
22181;BME280;11256;50.830;12.834;2022-12-29T13:20:54;96795.03;;;12.27;66.30
22181;BME280;11256;50.830;12.834;2022-12-29T13:26:08;96793.59;;;12.21;65.81
22181;BME280;11256;50.830;12.834;2022-12-29T13:31:26;96793.88;;;12.19;65.61
22181;BME280;11256;50.830;12.834;2022-12-29T13:36:38;96771.91;;;11.99;65.91
22181;BME280;11256;50.830;12.834;2022-12-29T13:41:50;96787.91;;;12.09;65.61
22181;BME280;11256;50.830;12.834;2022-12-29T13:46:52;96793.81;;;12.02;65.72
22181;BME280;11256;50.830;12.834;2022-12-29T13:51:56;96807.06;;;12.04;65.98
22181;BME280;11256;50.830;12.834;2022-12-29T13:57:10;96805.44;;;12.03;65.84
22181;BME280;11256;50.830;12.834;2022-12-29T14:02:36;96801.63;;;12.04;65.64
22181;BME280;11256;50.830;12.834;2022-12-29T14:07:40;96810.34;;;11.92;65.46
22181;BME280;11256;50.830;12.834;2022-12-29T14:12:42;96835.09;;;11.91;65.58
22181;BME280;11256;50.830;12.834;2022-12-29T14:17:43;96829.41;;;11.79;65.82
22181;BME280;11256;50.830;12.834;2022-12-29T14:23:01;96855.81;;;11.87;66.14
22181;BME280;11256;50.830;12.834;2022-12-29T14:28:16;96833.31;;;11.86;66.28
22181;BME280;11256;50.830;12.834;2022-12-29T14:33:23;96819.44;;;11.88;66.65
22181;BME280;11256;50.830;12.834;2022-12-29T14:38:29;96819.44;;;11.88;66.80
22181;BME280;11256;50.830;12.834;2022-12-29T14:43:30;96825.72;;;11.75;66.63
22181;BME280;11256;50.830;12.834;2022-12-29T14:48:37;96853.53;;;11.80;67.03
22181;BME280;11256;50.830;12.834;2022-12-29T14:58:51;96869.25;;;11.70;67.10
22181;BME280;11256;50.830;12.834;2022-12-29T15:03:57;96859.81;;;11.54;67.37
22181;BME280;11256;50.830;12.834;2022-12-29T15:09:10;96875.25;;;11.45;67.25
22181;BME280;11256;50.830;12.834;2022-12-29T15:14:39;96875.25;;;11.45;66.67
22181;BME280;11256;50.830;12.834;2022-12-29T15:19:40;96897.56;;;11.42;66.70
22181;BME280;11256;50.830;12.834;2022-12-29T15:24:42;96900.38;;;11.37;67.00
22181;BME280;11256;50.830;12.834;2022-12-29T15:29:44;96904.00;;;11.32;66.85
22181;BME280;11256;50.830;12.834;2022-12-29T15:34:48;96912.44;;;11.31;67.13
22181;BME280;11256;50.830;12.834;2022-12-29T15:39:49;96907.75;;;11.23;67.09
22181;BME280;11256;50.830;12.834;2022-12-29T15:44:51;96907.22;;;11.21;66.97
22181;BME280;11256;50.830;12.834;2022-12-29T15:50:14;96915.88;;;11.23;67.54
22181;BME280;11256;50.830;12.834;2022-12-29T15:55:28;96940.97;;;11.15;67.56
22181;BME280;11256;50.830;12.834;2022-12-29T16:00:32;96942.19;;;11.09;67.45
22181;BME280;11256;50.830;12.834;2022-12-29T16:05:35;96953.03;;;11.09;67.56
22181;BME280;11256;50.830;12.834;2022-12-29T16:10:36;96958.84;;;11.02;67.59
22181;BME280;11256;50.830;12.834;2022-12-29T16:15:37;96969.00;;;10.97;67.84
22181;BME280;11256;50.830;12.834;2022-12-29T16:20:40;96965.69;;;11.00;67.64
22181;BME280;11256;50.830;12.834;2022-12-29T16:25:41;96963.09;;;10.95;67.79
22181;BME280;11256;50.830;12.834;2022-12-29T16:30:41;96962.28;;;10.94;68.06
22181;BME280;11256;50.830;12.834;2022-12-29T16:35:46;96962.56;;;10.93;68.31
22181;BME280;11256;50.830;12.834;2022-12-29T16:51:02;96943.59;;;10.79;68.61
22181;BME280;11256;50.830;12.834;2022-12-29T16:56:08;96949.81;;;10.80;68.24
22181;BME280;11256;50.830;12.834;2022-12-29T17:01:13;96944.19;;;10.63;68.30
22181;BME280;11256;50.830;12.834;2022-12-29T17:06:20;96953.81;;;10.69;68.56
22181;BME280;11256;50.830;12.834;2022-12-29T17:11:28;96955.00;;;10.63;68.41
22181;BME280;11256;50.830;12.834;2022-12-29T17:16:48;96951.28;;;10.59;68.53
22181;BME280;11256;50.830;12.834;2022-12-29T17:21:49;96961.09;;;10.55;68.67
22181;BME280;11256;50.830;12.834;2022-12-29T17:26:53;96955.47;;;10.51;68.65
22181;BME280;11256;50.830;12.834;2022-12-29T17:31:54;96950.16;;;10.46;69.01
22181;BME280;11256;50.830;12.834;2022-12-29T17:36:54;96952.16;;;10.41;68.91
22181;BME280;11256;50.830;12.834;2022-12-29T17:41:55;96950.00;;;10.24;68.95
22181;BME280;11256;50.830;12.834;2022-12-29T17:46:55;96978.38;;;10.27;69.09
22181;BME280;11256;50.830;12.834;2022-12-29T17:51:56;96987.00;;;10.29;69.48
22181;BME280;11256;50.830;12.834;2022-12-29T17:56:57;96998.22;;;10.22;69.31
22181;BME280;11256;50.830;12.834;2022-12-29T18:01:57;96993.19;;;10.16;69.86
22181;BME280;11256;50.830;12.834;2022-12-29T18:06:57;96972.19;;;10.08;69.61
22181;BME280;11256;50.830;12.834;2022-12-29T18:11:58;96988.66;;;10.11;69.68
22181;BME280;11256;50.830;12.834;2022-12-29T18:16:58;96974.31;;;10.11;69.95
22181;BME280;11256;50.830;12.834;2022-12-29T18:21:58;96963.31;;;10.02;69.93
22181;BME280;11256;50.830;12.834;2022-12-29T18:26:59;96961.03;;;9.91;70.02
22181;BME280;11256;50.830;12.834;2022-12-29T18:31:59;96967.47;;;9.95;70.62
22181;BME280;11256;50.830;12.834;2022-12-29T18:36:59;96982.63;;;9.96;70.22
22181;BME280;11256;50.830;12.834;2022-12-29T18:42:03;96989.66;;;9.97;70.39
22181;BME280;11256;50.830;12.834;2022-12-29T18:47:03;96988.03;;;9.96;70.75
22181;BME280;11256;50.830;12.834;2022-12-29T18:52:11;96987.47;;;9.99;70.73
22181;BME280;11256;50.830;12.834;2022-12-29T18:57:11;96969.16;;;9.91;70.68
22181;BME280;11256;50.830;12.834;2022-12-29T19:02:15;96977.19;;;9.96;70.39
22181;BME280;11256;50.830;12.834;2022-12-29T19:07:16;96972.41;;;9.93;70.36
22181;BME280;11256;50.830;12.834;2022-12-29T19:12:18;96977.53;;;9.94;70.43
22181;BME280;11256;50.830;12.834;2022-12-29T19:17:18;96979.34;;;9.80;70.20
22181;BME280;11256;50.830;12.834;2022-12-29T19:22:18;96987.59;;;9.89;70.51
22181;BME280;11256;50.830;12.834;2022-12-29T19:27:19;96968.22;;;9.82;70.67
22181;BME280;11256;50.830;12.834;2022-12-29T19:32:19;96985.41;;;9.91;70.61
22181;BME280;11256;50.830;12.834;2022-12-29T19:37:19;96979.41;;;9.94;70.43
22181;BME280;11256;50.830;12.834;2022-12-29T19:42:20;96979.69;;;9.92;70.19
22181;BME280;11256;50.830;12.834;2022-12-29T19:47:20;96978.38;;;9.90;70.13
22181;BME280;11256;50.830;12.834;2022-12-29T19:52:20;96980.38;;;9.84;70.04
22181;BME280;11256;50.830;12.834;2022-12-29T19:57:21;96983.38;;;9.83;69.90
22181;BME280;11256;50.830;12.834;2022-12-29T20:02:29;96993.38;;;9.82;69.95
22181;BME280;11256;50.830;12.834;2022-12-29T20:07:30;96972.69;;;9.73;70.06
22181;BME280;11256;50.830;12.834;2022-12-29T20:12:31;96970.03;;;9.68;70.28
22181;BME280;11256;50.830;12.834;2022-12-29T20:17:31;96977.66;;;9.66;70.09
22181;BME280;11256;50.830;12.834;2022-12-29T20:22:32;96981.47;;;9.65;69.89
22181;BME280;11256;50.830;12.834;2022-12-29T20:27:33;96995.56;;;9.62;70.20
22181;BME280;11256;50.830;12.834;2022-12-29T20:32:33;97010.25;;;9.56;70.42
22181;BME280;11256;50.830;12.834;2022-12-29T20:37:35;97002.19;;;9.51;70.56
22181;BME280;11256;50.830;12.834;2022-12-29T20:42:35;97015.78;;;9.46;70.48
22181;BME280;11256;50.830;12.834;2022-12-29T20:47:35;97005.03;;;9.41;70.58
22181;BME280;11256;50.830;12.834;2022-12-29T20:52:36;97024.78;;;9.41;70.66
22181;BME280;11256;50.830;12.834;2022-12-29T20:57:36;97018.03;;;9.39;70.69
22181;BME280;11256;50.830;12.834;2022-12-29T21:02:37;97033.28;;;9.30;70.80
22181;BME280;11256;50.830;12.834;2022-12-29T21:07:37;97032.00;;;9.22;70.67
22181;BME280;11256;50.830;12.834;2022-12-29T21:12:37;97032.31;;;9.21;70.76
22181;BME280;11256;50.830;12.834;2022-12-29T21:17:38;97044.25;;;9.15;70.89
22181;BME280;11256;50.830;12.834;2022-12-29T21:22:38;97042.75;;;9.04;70.89
22181;BME280;11256;50.830;12.834;2022-12-29T21:27:39;97024.75;;;8.94;71.11
22181;BME280;11256;50.830;12.834;2022-12-29T21:32:43;97045.00;;;8.97;71.29
22181;BME280;11256;50.830;12.834;2022-12-29T21:37:43;97040.97;;;8.94;71.23
22181;BME280;11256;50.830;12.834;2022-12-29T21:42:43;97048.09;;;8.85;71.28
22181;BME280;11256;50.830;12.834;2022-12-29T21:47:44;97066.72;;;8.87;71.02
22181;BME280;11256;50.830;12.834;2022-12-29T21:53:03;97065.38;;;8.84;71.29
22181;BME280;11256;50.830;12.834;2022-12-29T21:58:03;97072.69;;;8.84;71.02
22181;BME280;11256;50.830;12.834;2022-12-29T22:03:22;97075.16;;;8.80;71.43
22181;BME280;11256;50.830;12.834;2022-12-29T22:08:41;97047.00;;;8.58;71.48
22181;BME280;11256;50.830;12.834;2022-12-29T22:14:00;97088.75;;;8.70;71.65
22181;BME280;11256;50.830;12.834;2022-12-29T22:19:00;97064.00;;;8.58;71.88
22181;BME280;11256;50.830;12.834;2022-12-29T22:24:01;97080.44;;;8.62;71.77
22181;BME280;11256;50.830;12.834;2022-12-29T22:29:01;97082.88;;;8.63;71.53
22181;BME280;11256;50.830;12.834;2022-12-29T22:34:03;97087.53;;;8.53;71.87
22181;BME280;11256;50.830;12.834;2022-12-29T22:39:03;97108.34;;;8.52;71.98
22181;BME280;11256;50.830;12.834;2022-12-29T22:44:04;97131.31;;;8.50;71.79
22181;BME280;11256;50.830;12.834;2022-12-29T22:49:04;97128.66;;;8.45;72.16
22181;BME280;11256;50.830;12.834;2022-12-29T22:54:05;97135.91;;;8.49;71.86
22181;BME280;11256;50.830;12.834;2022-12-29T22:59:05;97132.97;;;8.41;71.50
22181;BME280;11256;50.830;12.834;2022-12-29T23:04:06;97126.03;;;8.30;71.73
22181;BME280;11256;50.830;12.834;2022-12-29T23:09:09;97122.53;;;8.29;71.95
22181;BME280;11256;50.830;12.834;2022-12-29T23:14:13;97128.13;;;8.38;72.14
22181;BME280;11256;50.830;12.834;2022-12-29T23:19:15;97130.59;;;8.34;72.17
22181;BME280;11256;50.830;12.834;2022-12-29T23:24:15;97151.88;;;8.41;72.12
22181;BME280;11256;50.830;12.834;2022-12-29T23:29:18;97146.50;;;8.36;71.83
22181;BME280;11256;50.830;12.834;2022-12-29T23:34:18;97134.41;;;8.28;72.17
22181;BME280;11256;50.830;12.834;2022-12-29T23:39:21;97159.75;;;8.32;71.96
22181;BME280;11256;50.830;12.834;2022-12-29T23:44:23;97157.84;;;8.33;72.21
22181;BME280;11256;50.830;12.834;2022-12-29T23:49:23;97159.50;;;8.34;72.16
22181;BME280;11256;50.830;12.834;2022-12-29T23:54:24;97169.19;;;8.35;72.11
22181;BME280;11256;50.830;12.834;2022-12-29T23:59:24;97168.09;;;8.36;72.08
